createdAt,value
2022-11-14T00:03:03.471Z,31.57
2022-11-14T00:08:08.020Z,27.30
2022-11-14T00:13:10.771Z,27.30
2022-11-14T00:18:13.627Z,26.80
2022-11-14T00:23:17.894Z,25.37
2022-11-14T00:28:20.607Z,29.80
2022-11-14T00:33:23.380Z,28.67
2022-11-14T00:38:27.824Z,32.03
2022-11-14T00:43:30.828Z,27.07
2022-11-14T00:48:33.609Z,27.67
2022-11-14T00:53:37.796Z,26.47
2022-11-14T00:58:40.574Z,25.50
2022-11-14T01:03:43.331Z,31.63
2022-11-14T01:08:47.687Z,29.13
2022-11-14T01:13:50.501Z,25.63
2022-11-14T01:18:53.241Z,24.90
2022-11-14T01:23:57.450Z,23.63
2022-11-14T01:29:00.204Z,23.20
2022-11-14T01:34:03.145Z,23.43
2022-11-14T01:39:07.246Z,24.50
2022-11-14T01:44:14.405Z,22.73
2022-11-14T01:49:21.674Z,22.30
2022-11-14T01:54:28.893Z,26.10
2022-11-14T01:59:35.107Z,23.50
2022-11-14T02:04:42.006Z,21.70
2022-11-14T02:09:48.105Z,23.00
2022-11-14T02:14:55.575Z,21.20
2022-11-14T02:20:07.236Z,23.23
2022-11-14T02:25:11.907Z,25.30
2022-11-14T02:30:17.116Z,21.90
2022-11-14T02:35:21.217Z,23.73
2022-11-14T02:40:23.961Z,22.90
2022-11-14T02:45:27.124Z,21.50
2022-11-14T02:50:31.219Z,22.83
2022-11-14T02:55:33.962Z,22.57
2022-11-14T03:00:53.305Z,22.67
2022-11-14T03:06:03.021Z,22.87
2022-11-14T03:11:06.813Z,24.97
2022-11-14T03:16:11.761Z,22.97
2022-11-14T03:21:17.579Z,22.50
2022-11-14T03:26:20.368Z,22.40
2022-11-14T03:31:23.299Z,23.03
2022-11-14T03:36:27.395Z,20.23
2022-11-14T03:41:30.169Z,24.23
2022-11-14T03:46:33.084Z,21.70
2022-11-14T03:51:37.191Z,21.33
2022-11-14T03:56:40.038Z,22.20
2022-11-14T04:01:42.861Z,21.23
2022-11-14T04:06:47.069Z,21.97
2022-11-14T04:11:49.876Z,21.30
2022-11-14T04:16:52.740Z,22.90
2022-11-14T04:21:56.804Z,20.63
2022-11-14T04:26:59.805Z,22.17
2022-11-14T04:32:02.549Z,20.40
2022-11-14T04:37:06.610Z,22.77
2022-11-14T04:42:09.441Z,25.40
2022-11-14T04:47:12.340Z,22.10
2022-11-14T04:52:16.580Z,21.00
2022-11-14T04:57:19.361Z,20.00
2022-11-14T05:02:22.137Z,22.67
2022-11-14T05:07:26.287Z,23.80
2022-11-14T05:12:29.149Z,23.37
2022-11-14T05:17:31.876Z,25.40
2022-11-14T05:22:35.946Z,23.40
2022-11-14T05:27:38.730Z,22.80
2022-11-14T05:32:41.482Z,22.20
2022-11-14T05:37:45.533Z,23.77
2022-11-14T05:42:48.268Z,23.10
2022-11-14T05:47:53.724Z,24.90
2022-11-14T05:52:58.796Z,24.47
2022-11-14T05:58:01.963Z,26.83
2022-11-14T06:03:04.732Z,26.00
2022-11-14T06:08:08.793Z,24.23
2022-11-14T06:13:11.517Z,26.17
2022-11-14T06:18:14.296Z,25.53
2022-11-14T06:23:23.446Z,28.77
2022-11-14T06:28:27.697Z,26.87
2022-11-14T06:33:34.534Z,31.53
2022-11-14T06:38:40.066Z,29.93
2022-11-14T06:43:44.399Z,29.07
2022-11-14T06:48:48.972Z,26.60
2022-11-14T06:53:53.082Z,28.57
2022-11-14T06:58:55.914Z,42.77
2022-11-14T07:04:00.528Z,29.30
2022-11-14T07:09:05.428Z,25.53
2022-11-14T07:14:08.269Z,28.50
2022-11-14T07:19:11.107Z,26.70
2022-11-14T07:24:15.300Z,25.37
2022-11-14T07:29:18.020Z,27.07
2022-11-14T07:34:20.738Z,26.37
2022-11-14T07:39:25.009Z,22.40
2022-11-14T07:44:27.724Z,22.50
2022-11-14T07:49:30.459Z,23.27
2022-11-14T07:54:34.483Z,20.50
2022-11-14T07:59:37.211Z,25.33
2022-11-14T08:04:39.973Z,22.25
2022-11-14T08:09:44.146Z,29.20
2022-11-14T08:14:46.971Z,26.08
2022-11-14T08:19:49.789Z,20.77
2022-11-14T08:24:53.939Z,19.80
2022-11-14T08:29:56.710Z,21.13
2022-11-14T08:34:59.470Z,17.92
2022-11-14T08:40:04.176Z,20.10
2022-11-14T08:45:07.975Z,20.10
2022-11-14T08:50:10.903Z,17.70
2022-11-14T08:55:15.149Z,23.02
2022-11-14T09:00:18.529Z,24.77
2022-11-14T09:05:21.396Z,21.02
2022-11-14T09:10:26.139Z,19.58
2022-11-14T09:15:29.521Z,18.52
2022-11-14T09:20:37.410Z,18.50
2022-11-14T09:25:44.035Z,19.65
2022-11-14T09:30:47.117Z,20.05
2022-11-14T09:35:52.268Z,21.42
2022-11-14T09:41:05.191Z,17.77
2022-11-14T09:46:19.516Z,19.27
2022-11-14T09:51:25.393Z,21.83
2022-11-14T09:56:30.129Z,18.58
2022-11-14T10:01:44.699Z,20.50
2022-11-14T10:06:59.675Z,18.15
2022-11-14T10:12:12.886Z,18.48
2022-11-14T10:17:34.883Z,18.92
2022-11-14T10:22:53.020Z,20.33
2022-11-14T10:28:21.037Z,23.02
2022-11-14T10:33:34.976Z,21.25
2022-11-14T10:38:43.306Z,16.60
2022-11-14T10:43:49.798Z,18.75
2022-11-14T10:48:57.584Z,18.38
2022-11-14T10:54:11.922Z,18.85
2022-11-14T10:59:16.384Z,21.33
2022-11-14T11:04:27.386Z,21.02
2022-11-14T11:09:50.143Z,27.45
2022-11-14T11:15:15.022Z,18.48
2022-11-14T11:20:31.629Z,17.83
2022-11-14T11:25:35.270Z,17.15
2022-11-14T11:30:40.423Z,19.45
2022-11-14T11:35:44.646Z,19.65
2022-11-14T11:40:51.541Z,17.95
2022-11-14T11:45:57.256Z,20.05
2022-11-14T11:51:04.104Z,19.75
2022-11-14T11:56:12.576Z,19.40
2022-11-14T12:01:17.749Z,21.60
2022-11-14T12:06:24.945Z,20.60
2022-11-14T12:11:32.115Z,18.42
2022-11-14T12:17:00.587Z,17.23
2022-11-14T12:22:21.742Z,19.70
2022-11-14T12:27:39.141Z,18.98
2022-11-14T12:32:47.795Z,16.63
2022-11-14T12:37:55.797Z,18.73
2022-11-14T12:43:00.850Z,18.80
2022-11-14T12:48:23.183Z,16.75
2022-11-14T12:53:42.056Z,21.42
2022-11-14T12:59:06.196Z,15.98
2022-11-14T13:04:20.986Z,16.67
2022-11-14T13:09:34.776Z,16.30
2022-11-14T13:15:08.088Z,16.10
2022-11-14T13:20:50.199Z,15.88
2022-11-14T13:26:46.403Z,18.90
2022-11-14T13:31:51.721Z,20.05
2022-11-14T13:37:00.767Z,18.70
2022-11-14T13:42:21.451Z,18.57
2022-11-14T13:47:46.529Z,19.30
2022-11-14T13:52:51.130Z,18.75
2022-11-14T13:58:08.389Z,21.13
2022-11-14T14:03:28.116Z,23.20
2022-11-14T14:08:50.465Z,21.47
2022-11-14T14:14:01.286Z,24.70
2022-11-14T14:19:13.530Z,21.47
2022-11-14T14:24:32.724Z,19.07
2022-11-14T14:29:46.216Z,21.30
2022-11-14T14:34:49.027Z,24.30
2022-11-14T14:40:01.577Z,25.77
2022-11-14T14:45:06.370Z,26.13
2022-11-14T14:50:18.363Z,24.27
2022-11-14T14:55:24.643Z,26.20
2022-11-14T15:00:29.529Z,26.57
2022-11-14T15:05:32.639Z,25.57
2022-11-14T15:10:37.136Z,25.80
2022-11-14T15:15:40.570Z,27.53
2022-11-14T15:20:43.330Z,27.33
2022-11-14T15:25:47.887Z,30.63
2022-11-14T15:30:59.637Z,29.80
2022-11-14T15:36:11.635Z,31.13
2022-11-14T15:41:26.705Z,32.40
2022-11-14T15:46:44.395Z,32.30
2022-11-14T15:51:49.254Z,34.33
2022-11-14T15:56:54.232Z,33.57
2022-11-14T16:02:00.361Z,34.47
2022-11-14T16:07:03.563Z,34.30
2022-11-14T16:12:08.540Z,33.10
2022-11-14T16:17:14.749Z,36.17
2022-11-14T16:22:19.187Z,33.37
2022-11-14T16:27:23.651Z,36.50
2022-11-14T16:32:28.208Z,36.03
2022-11-14T16:37:31.016Z,38.13
2022-11-14T16:42:35.979Z,38.07
2022-11-14T16:47:40.107Z,40.27
2022-11-14T16:52:43.852Z,39.77
2022-11-14T16:57:49.673Z,39.00
2022-11-14T17:02:53.523Z,39.93
2022-11-14T17:07:57.797Z,41.93
2022-11-14T17:13:02.664Z,40.63
2022-11-14T17:18:07.978Z,41.87
2022-11-14T17:23:11.409Z,42.63
2022-11-14T17:28:16.208Z,43.80
2022-11-14T17:33:19.552Z,43.43
2022-11-14T18:10:13.914Z,45.77
2022-11-14T18:16:08.158Z,47.63
2022-11-14T18:46:47.490Z,48.57
2022-11-14T18:59:07.035Z,43.30
2022-11-14T19:48:12.344Z,53.13
2022-11-14T19:53:19.252Z,42.87
2022-11-14T19:58:22.144Z,44.40
2022-11-14T20:03:28.217Z,47.33
2022-11-14T20:08:32.422Z,46.47
2022-11-14T20:13:39.565Z,43.57
2022-11-14T20:18:51.239Z,44.80
2022-11-14T20:23:56.217Z,46.90
2022-11-14T20:29:00.377Z,44.13
2022-11-14T20:34:04.663Z,49.93
2022-11-14T20:39:07.817Z,45.87
2022-11-14T20:44:11.040Z,51.63
2022-11-14T20:49:15.521Z,48.33
2022-11-14T20:54:21.000Z,50.37
2022-11-14T20:59:26.464Z,47.50
2022-11-14T21:04:38.382Z,47.23
2022-11-14T21:09:41.467Z,44.83
2022-11-14T21:14:44.439Z,46.13
2022-11-14T21:19:48.957Z,48.70
2022-11-14T21:24:51.929Z,45.67
2022-11-14T21:29:55.337Z,48.70
2022-11-14T21:35:16.422Z,49.27
2022-11-14T21:52:39.110Z,45.80
2022-11-14T21:57:58.309Z,47.20
2022-11-14T22:03:24.242Z,44.67
2022-11-14T22:08:27.340Z,47.07
2022-11-14T22:13:32.732Z,45.00
2022-11-14T22:18:35.778Z,46.47
2022-11-14T22:23:38.676Z,47.47
2022-11-14T22:28:42.779Z,50.90
2022-11-14T22:33:47.247Z,51.30
2022-11-14T22:38:50.846Z,50.90
2022-11-14T22:43:55.428Z,49.60
2022-11-14T22:48:58.236Z,47.03
2022-11-14T22:54:01.012Z,48.50
2022-11-14T22:59:05.141Z,51.83
2022-11-14T23:04:07.927Z,49.93
2022-11-14T23:09:10.771Z,58.13
2022-11-14T23:14:15.053Z,48.90
2022-11-14T23:19:17.852Z,51.67
2022-11-14T23:24:20.669Z,52.93
2022-11-14T23:29:25.013Z,55.03
2022-11-14T23:34:27.834Z,53.10
2022-11-14T23:39:30.607Z,55.50
2022-11-14T23:44:34.746Z,55.27
2022-11-14T23:49:37.550Z,54.93
2022-11-14T23:54:40.305Z,60.53
2022-11-14T23:59:44.421Z,59.07
